Time;durP1;ratioP1;P1;durP2;ratioP2;P2;SDS_P1;SDS_P2;PMS_P1;PMS_P2;Temp;Humidity;BMP_temperature;BMP_pressure;BME280_temperature;BME280_humidity;BME280_pressure;Samples;Min_cycle;Max_cycle;Signal;HPM_P1;HPM_P2
2022/12/18 00:01:43;;;;;;;12.88;6.15;;;;;;;;;;5005480;28;92273;-63
2022/12/18 00:04:36;;;;;;;14.20;6.68;;;;;;;;;;4997553;28;93027;-62
2022/12/18 00:07:02;;;;;;;14.02;7.10;;;;;;;;;;5000445;28;92605;-63
2022/12/18 00:09:29;;;;;;;12.77;5.90;;;;;;;;;;5002074;28;92661;-62
2022/12/18 00:12:05;;;;;;;14.43;6.28;;;;;;;;;;4998717;28;96298;-62
2022/12/18 00:14:41;;;;;;;12.25;5.97;;;;;;;;;;4998000;28;92653;-62
2022/12/18 00:17:09;;;;;;;12.23;5.90;;;;;;;;;;5000956;28;92758;-60
2022/12/18 00:19:35;;;;;;;13.68;6.63;;;;;;;;;;5000892;28;93382;-63
2022/12/18 00:22:01;;;;;;;13.65;6.00;;;;;;;;;;5001325;28;92724;-62
2022/12/18 00:24:28;;;;;;;13.63;6.78;;;;;;;;;;5003230;28;92251;-63
2022/12/18 00:26:54;;;;;;;14.23;6.63;;;;;;;;;;5000481;28;92193;-64
2022/12/18 00:29:20;;;;;;;12.52;6.07;;;;;;;;;;4998469;28;92691;-63
2022/12/18 00:31:47;;;;;;;11.73;6.07;;;;;;;;;;4999070;28;93875;-63
2022/12/18 00:34:13;;;;;;;15.30;7.18;;;;;;;;;;5002751;28;92658;-63
2022/12/18 00:36:40;;;;;;;12.60;6.18;;;;;;;;;;5000159;28;94797;-64
2022/12/18 00:39:07;;;;;;;13.25;6.78;;;;;;;;;;5003501;28;92671;-64
2022/12/18 00:44:19;;;;;;;14.93;6.78;;;;;;;;;;4998105;28;93170;-62
2022/12/18 00:46:46;;;;;;;12.23;6.25;;;;;;;;;;5004746;28;92588;-66
2022/12/18 00:49:12;;;;;;;14.63;7.47;;;;;;;;;;5003432;28;92424;-63
2022/12/18 00:51:39;;;;;;;14.15;6.72;;;;;;;;;;5002968;28;92642;-66
2022/12/18 00:54:05;;;;;;;13.25;6.53;;;;;;;;;;5003637;28;91376;-66
2022/12/18 00:56:32;;;;;;;13.65;6.57;;;;;;;;;;5002401;28;92437;-64
2022/12/18 00:58:58;;;;;;;35.85;15.10;;;;;;;;;;4982231;28;93352;-67
2022/12/18 01:01:24;;;;;;;34.03;14.88;;;;;;;;;;5001291;28;95267;-65
2022/12/18 01:03:51;;;;;;;32.70;14.70;;;;;;;;;;5002160;28;94510;-64
2022/12/18 01:06:18;;;;;;;;;;;;;;;;;;5001608;28;94662;-64
2022/12/18 01:08:45;;;;;;;30.30;14.65;;;;;;;;;;5006835;28;92059;-64
2022/12/18 01:11:16;;;;;;;34.30;15.07;;;;;;;;;;5006954;28;92950;-64
2022/12/18 01:13:43;;;;;;;31.00;14.57;;;;;;;;;;5001466;28;92171;-64
2022/12/18 01:16:13;;;;;;;34.00;14.65;;;;;;;;;;5001505;28;94350;-64
2022/12/18 01:18:39;;;;;;;31.25;14.32;;;;;;;;;;5002927;28;92373;-64
2022/12/18 01:21:11;;;;;;;34.10;15.35;;;;;;;;;;5002262;28;92309;-65
2022/12/18 01:23:37;;;;;;;32.25;14.23;;;;;;;;;;5001838;28;92805;-65
2022/12/18 01:26:06;;;;;;;37.78;16.35;;;;;;;;;;5000256;28;94906;-64
2022/12/18 01:28:34;;;;;;;39.13;16.98;;;;;;;;;;5005207;28;92157;-66
2022/12/18 01:31:13;;;;;;;36.65;14.80;;;;;;;;;;5000733;28;95725;-65
2022/12/18 01:33:39;;;;;;;35.13;14.65;;;;;;;;;;5000721;28;92406;-65
2022/12/18 01:36:06;;;;;;;33.30;14.57;;;;;;;;;;5002288;28;92461;-65
2022/12/18 01:38:33;;;;;;;36.75;15.45;;;;;;;;;;5000928;28;93036;-65
2022/12/18 01:41:00;;;;;;;34.65;14.05;;;;;;;;;;5001861;28;92260;-65
2022/12/18 01:43:40;;;;;;;35.03;15.13;;;;;;;;;;5001289;28;92407;-65
2022/12/18 01:46:07;;;;;;;33.05;13.35;;;;;;;;;;5001831;28;93281;-65
2022/12/18 01:48:33;;;;;;;32.30;14.30;;;;;;;;;;5000703;28;92480;-65
2022/12/18 01:51:00;;;;;;;35.33;14.85;;;;;;;;;;5001374;28;94773;-66
2022/12/18 01:53:26;;;;;;;31.75;14.25;;;;;;;;;;4992526;28;92584;-65
2022/12/18 01:55:54;;;;;;;31.73;12.82;;;;;;;;;;5001804;28;92276;-66
2022/12/18 01:58:25;;;;;;;35.05;14.38;;;;;;;;;;5000356;28;95758;-65
2022/12/18 02:00:51;;;;;;;34.33;13.82;;;;;;;;;;5000092;28;93906;-66
2022/12/18 02:03:18;;;;;;;35.15;14.50;;;;;;;;;;4999945;28;92414;-66
2022/12/18 02:05:57;;;;;;;33.60;13.85;;;;;;;;;;5000041;28;94271;-66
2022/12/18 02:08:27;;;;;;;33.53;13.80;;;;;;;;;;4987988;28;91825;-66
2022/12/18 02:11:05;;;;;;;35.75;14.52;;;;;;;;;;5000010;28;92343;-64
2022/12/18 02:13:40;;;;;;;34.95;13.43;;;;;;;;;;5004826;28;92700;-65
2022/12/18 02:16:07;;;;;;;35.03;14.27;;;;;;;;;;4998675;28;94746;-65
2022/12/18 02:18:36;;;;;;;33.13;14.05;;;;;;;;;;5000374;28;94483;-66
2022/12/18 02:21:24;;;;;;;34.17;14.50;;;;;;;;;;5001378;28;92480;-65
2022/12/18 02:23:54;;;;;;;35.08;12.88;;;;;;;;;;5001294;28;93403;-65
2022/12/18 02:26:25;;;;;;;33.95;13.95;;;;;;;;;;4999885;28;93429;-65
2022/12/18 02:28:56;;;;;;;33.28;13.32;;;;;;;;;;5000176;28;92787;-65
2022/12/18 02:31:27;;;;;;;33.83;13.13;;;;;;;;;;5000293;28;94161;-65
2022/12/18 02:33:54;;;;;;;35.63;13.55;;;;;;;;;;4998328;28;91851;-65
2022/12/18 02:36:21;;;;;;;33.85;14.55;;;;;;;;;;5003111;28;92400;-65
2022/12/18 02:38:49;;;;;;;34.97;13.88;;;;;;;;;;4999960;28;95039;-65
2022/12/18 02:41:16;;;;;;;36.78;14.75;;;;;;;;;;4999620;28;95116;-65
2022/12/18 02:43:48;;;;;;;32.28;13.88;;;;;;;;;;4999642;28;97184;-66
2022/12/18 02:46:30;;;;;;;33.08;12.38;;;;;;;;;;4999249;28;93124;-66
2022/12/18 02:49:22;;;;;;;35.67;13.68;;;;;;;;;;4988600;28;92426;-66
2022/12/18 02:51:55;;;;;;;35.65;13.18;;;;;;;;;;4996329;28;92786;-66
2022/12/18 02:54:31;;;;;;;30.65;13.43;;;;;;;;;;5001184;28;92536;-65
2022/12/18 02:57:02;;;;;;;33.47;13.30;;;;;;;;;;4999188;28;92390;-65
2022/12/18 02:59:31;;;;;;;32.25;12.65;;;;;;;;;;4991273;28;92310;-66
2022/12/18 03:02:05;;;;;;;33.72;13.02;;;;;;;;;;4999092;28;92433;-67
2022/12/18 03:04:36;;;;;;;33.88;12.63;;;;;;;;;;4998998;28;94985;-66
2022/12/18 03:07:05;;;;;;;32.03;13.40;;;;;;;;;;4990833;28;96892;-66
2022/12/18 03:09:37;;;;;;;32.42;12.48;;;;;;;;;;4999535;28;92709;-66
2022/12/18 03:12:24;;;;;;;31.35;12.30;;;;;;;;;;5000887;28;92769;-66
2022/12/18 03:14:59;;;;;;;29.35;12.60;;;;;;;;;;5000634;28;92644;-66
2022/12/18 03:17:27;;;;;;;37.35;15.13;;;;;;;;;;4996062;28;92253;-66
2022/12/18 03:19:53;;;;;;;;;;;;;;;;;;5007637;28;92839;-65
2022/12/18 03:22:22;;;;;;;32.03;12.32;;;;;;;;;;5004988;28;92413;-66
2022/12/18 03:24:51;;;;;;;31.48;12.07;;;;;;;;;;4987277;28;94516;-67
2022/12/18 03:27:19;;;;;;;31.95;13.45;;;;;;;;;;5002866;28;93955;-68
2022/12/18 03:30:07;;;;;;;33.65;12.68;;;;;;;;;;4999063;28;92180;-65
2022/12/18 03:32:56;;;;;;;31.52;11.90;;;;;;;;;;5011286;28;94911;-65
2022/12/18 03:35:28;;;;;;;29.48;12.63;;;;;;;;;;5002331;28;93985;-65
2022/12/18 03:37:55;;;;;;;29.05;12.38;;;;;;;;;;5002660;28;92429;-65
2022/12/18 03:40:26;;;;;;;30.77;11.43;;;;;;;;;;5002498;28;92822;-64
2022/12/18 03:42:59;;;;;;;32.78;11.90;;;;;;;;;;5007524;28;92524;-65
2022/12/18 03:45:30;;;;;;;32.47;12.57;;;;;;;;;;5001579;28;93421;-65
2022/12/18 03:48:02;;;;;;;29.63;12.38;;;;;;;;;;5002546;28;94581;-64
2022/12/18 03:50:41;;;;;;;28.83;12.02;;;;;;;;;;5002622;28;91724;-65
2022/12/18 03:53:11;;;;;;;30.40;12.52;;;;;;;;;;5002586;28;94084;-65
2022/12/18 03:55:38;;;;;;;29.40;12.25;;;;;;;;;;5001947;28;94549;-65
2022/12/18 03:58:07;;;;;;;28.95;11.88;;;;;;;;;;4995614;28;94492;-65
2022/12/18 04:00:47;;;;;;;30.95;13.15;;;;;;;;;;4999043;28;95824;-65
2022/12/18 04:03:16;;;;;;;27.80;11.65;;;;;;;;;;5001895;28;92481;-64
2022/12/18 04:05:46;;;;;;;29.02;12.32;;;;;;;;;;5004707;28;93399;-65
2022/12/18 04:08:13;;;;;;;;;;;;;;;;;;5002671;28;92336;-64
2022/12/18 04:10:42;;;;;;;26.35;11.82;;;;;;;;;;5004282;28;92052;-64
2022/12/18 04:13:09;;;;;;;29.42;13.32;;;;;;;;;;4996305;28;94749;-64
2022/12/18 04:15:36;;;;;;;28.55;12.23;;;;;;;;;;5003540;28;93088;-65
2022/12/18 04:18:07;;;;;;;31.13;12.75;;;;;;;;;;5002069;28;92192;-65
2022/12/18 04:20:40;;;;;;;29.52;11.77;;;;;;;;;;5001792;28;92685;-65
2022/12/18 04:23:07;;;;;;;29.35;12.80;;;;;;;;;;5001842;28;94740;-65
2022/12/18 04:25:33;;;;;;;26.75;11.25;;;;;;;;;;5001705;28;92604;-66
2022/12/18 04:28:06;;;;;;;28.25;12.18;;;;;;;;;;5006394;28;92369;-65
2022/12/18 04:30:33;;;;;;;26.58;11.77;;;;;;;;;;5001012;28;92076;-65
2022/12/18 04:33:00;;;;;;;26.70;11.68;;;;;;;;;;5002132;28;92608;-66
2022/12/18 04:35:30;;;;;;;25.08;11.55;;;;;;;;;;5001287;28;92698;-66
2022/12/18 04:37:56;;;;;;;24.00;10.98;;;;;;;;;;5001860;28;92125;-66
2022/12/18 04:40:23;;;;;;;27.05;11.65;;;;;;;;;;4997387;28;92504;-66
2022/12/18 04:42:50;;;;;;;23.88;11.43;;;;;;;;;;4995282;28;93503;-66
2022/12/18 04:45:17;;;;;;;25.42;11.25;;;;;;;;;;5002282;28;92717;-67
2022/12/18 04:47:44;;;;;;;24.08;11.07;;;;;;;;;;5000243;28;94725;-66
2022/12/18 04:50:10;;;;;;;31.17;12.18;;;;;;;;;;5005562;28;93069;-66
2022/12/18 04:52:36;;;;;;;26.33;10.48;;;;;;;;;;5002482;28;92981;-67
2022/12/18 04:55:03;;;;;;;22.65;9.95;;;;;;;;;;4990819;28;92716;-65
2022/12/18 04:57:29;;;;;;;25.88;10.43;;;;;;;;;;5002108;28;92028;-65
2022/12/18 04:59:56;;;;;;;24.70;10.98;;;;;;;;;;5002862;28;92565;-63
2022/12/18 05:02:22;;;;;;;25.50;10.57;;;;;;;;;;5002826;28;92596;-63
2022/12/18 05:04:49;;;;;;;23.83;10.88;;;;;;;;;;5002846;28;91527;-66
2022/12/18 05:07:15;;;;;;;25.23;11.07;;;;;;;;;;5002396;28;92745;-65
2022/12/18 05:09:41;;;;;;;24.63;11.63;;;;;;;;;;5002279;28;92592;-63
2022/12/18 05:12:08;;;;;;;26.40;11.63;;;;;;;;;;5004192;28;94626;-63
2022/12/18 05:14:34;;;;;;;22.20;10.20;;;;;;;;;;5002571;28;93081;-66
2022/12/18 05:17:00;;;;;;;25.08;11.43;;;;;;;;;;5002406;28;92319;-64
2022/12/18 05:19:27;;;;;;;24.88;11.13;;;;;;;;;;5002673;28;92582;-64
2022/12/18 05:21:53;;;;;;;24.00;10.15;;;;;;;;;;5002228;28;93566;-64
2022/12/18 05:24:20;;;;;;;23.05;10.80;;;;;;;;;;4995588;28;92276;-64
2022/12/18 05:26:46;;;;;;;25.10;10.55;;;;;;;;;;5002424;28;92190;-65
2022/12/18 05:29:12;;;;;;;27.33;10.90;;;;;;;;;;5003293;28;91883;-64
2022/12/18 05:31:39;;;;;;;20.13;9.35;;;;;;;;;;5005499;28;92034;-62
2022/12/18 05:34:08;;;;;;;21.35;8.70;;;;;;;;;;5002959;28;92667;-62
2022/12/18 05:36:35;;;;;;;16.90;7.72;;;;;;;;;;5000783;28;94560;-62
2022/12/18 05:39:02;;;;;;;17.15;7.70;;;;;;;;;;5002895;28;95066;-62
2022/12/18 05:41:29;;;;;;;19.25;8.50;;;;;;;;;;5001653;28;92513;-62
2022/12/18 05:43:56;;;;;;;17.23;7.72;;;;;;;;;;5002515;28;92220;-62
2022/12/18 05:46:22;;;;;;;16.27;7.95;;;;;;;;;;5002444;28;93325;-62
2022/12/18 05:48:50;;;;;;;16.67;7.70;;;;;;;;;;5002612;28;92257;-64
2022/12/18 05:51:17;;;;;;;19.63;7.78;;;;;;;;;;5002477;28;92571;-63
2022/12/18 05:53:43;;;;;;;16.83;7.47;;;;;;;;;;5006251;28;92865;-62
2022/12/18 05:56:14;;;;;;;16.00;7.22;;;;;;;;;;5002900;28;92402;-62
2022/12/18 05:58:41;;;;;;;16.30;6.97;;;;;;;;;;5002588;28;93522;-62
2022/12/18 06:01:09;;;;;;;16.95;7.63;;;;;;;;;;5000715;28;96160;-62
2022/12/18 06:03:35;;;;;;;14.80;6.88;;;;;;;;;;5001829;28;92223;-62
2022/12/18 06:06:02;;;;;;;15.82;7.47;;;;;;;;;;5000893;28;93036;-63
2022/12/18 06:08:28;;;;;;;17.73;7.28;;;;;;;;;;5002571;28;92597;-62
2022/12/18 06:10:55;;;;;;;14.38;7.45;;;;;;;;;;5002367;28;92839;-62
2022/12/18 06:13:21;;;;;;;15.35;7.15;;;;;;;;;;5002828;28;92697;-62
2022/12/18 06:15:47;;;;;;;15.35;7.22;;;;;;;;;;5005310;28;92688;-63
2022/12/18 06:18:14;;;;;;;14.95;6.88;;;;;;;;;;5002752;28;92718;-62
2022/12/18 06:20:41;;;;;;;15.18;7.30;;;;;;;;;;5002189;28;92575;-62
2022/12/18 06:23:08;;;;;;;14.68;7.03;;;;;;;;;;5002256;28;93554;-62
2022/12/18 06:25:37;;;;;;;14.15;6.85;;;;;;;;;;5000763;28;94436;-62
2022/12/18 06:28:03;;;;;;;15.55;6.80;;;;;;;;;;5002139;28;93521;-62
2022/12/18 06:30:30;;;;;;;13.32;6.47;;;;;;;;;;5002107;28;91988;-62
2022/12/18 06:32:56;;;;;;;12.30;6.28;;;;;;;;;;5002286;28;93183;-62
2022/12/18 06:35:23;;;;;;;14.55;6.75;;;;;;;;;;5001980;28;92864;-62
2022/12/18 06:37:49;;;;;;;13.85;6.95;;;;;;;;;;5005403;28;92075;-62
2022/12/18 06:40:16;;;;;;;13.80;6.60;;;;;;;;;;5001817;28;92672;-62
2022/12/18 06:42:42;;;;;;;14.27;6.38;;;;;;;;;;5002700;28;92566;-62
2022/12/18 06:45:09;;;;;;;12.23;6.45;;;;;;;;;;5001543;28;92363;-62
2022/12/18 06:47:36;;;;;;;12.90;6.38;;;;;;;;;;4997582;28;93458;-62
2022/12/18 06:50:05;;;;;;;12.73;5.43;;;;;;;;;;5000700;28;95119;-63
2022/12/18 06:52:32;;;;;;;12.57;5.90;;;;;;;;;;5001568;28;94971;-62
2022/12/18 06:54:59;;;;;;;12.60;5.53;;;;;;;;;;5001631;28;93039;-62
2022/12/18 06:57:25;;;;;;;12.90;6.53;;;;;;;;;;5002129;28;92713;-62
2022/12/18 06:59:51;;;;;;;12.10;6.45;;;;;;;;;;5004825;28;93319;-62
2022/12/18 07:02:18;;;;;;;12.93;6.25;;;;;;;;;;5000933;28;92102;-62
2022/12/18 07:04:44;;;;;;;12.35;6.07;;;;;;;;;;5001343;28;93233;-62
2022/12/18 07:07:11;;;;;;;12.32;5.72;;;;;;;;;;5002012;28;91958;-62
2022/12/18 07:09:37;;;;;;;12.43;6.07;;;;;;;;;;5002096;28;92029;-62
2022/12/18 07:12:04;;;;;;;11.32;5.65;;;;;;;;;;5001576;28;93842;-62
2022/12/18 07:14:31;;;;;;;12.45;6.20;;;;;;;;;;4999612;28;96052;-61
2022/12/18 07:16:57;;;;;;;13.43;5.85;;;;;;;;;;5002076;28;92060;-62
2022/12/18 07:19:25;;;;;;;12.32;6.07;;;;;;;;;;5001656;28;92213;-62
2022/12/18 07:21:51;;;;;;;10.93;5.13;;;;;;;;;;5004595;28;93222;-62
2022/12/18 07:24:18;;;;;;;12.88;5.95;;;;;;;;;;5001165;28;92770;-62
2022/12/18 07:26:47;;;;;;;12.30;5.80;;;;;;;;;;5001316;28;93023;-62
2022/12/18 07:29:14;;;;;;;11.63;5.95;;;;;;;;;;4994934;28;92214;-62
2022/12/18 07:31:40;;;;;;;11.57;5.65;;;;;;;;;;5001701;28;92311;-62
2022/12/18 07:34:09;;;;;;;11.13;5.50;;;;;;;;;;5001427;28;92560;-62
2022/12/18 07:36:36;;;;;;;11.18;5.20;;;;;;;;;;5001294;28;92240;-62
2022/12/18 07:39:02;;;;;;;11.23;5.68;;;;;;;;;;4999708;28;94372;-62
2022/12/18 07:41:28;;;;;;;11.98;5.72;;;;;;;;;;5004321;28;92599;-63
2022/12/18 07:43:58;;;;;;;11.40;5.88;;;;;;;;;;4999425;28;94532;-62
2022/12/18 07:46:25;;;;;;;12.05;5.45;;;;;;;;;;5000473;28;92729;-62
2022/12/18 07:48:51;;;;;;;12.52;5.13;;;;;;;;;;5000854;28;92226;-62
2022/12/18 07:51:18;;;;;;;10.73;5.30;;;;;;;;;;5000851;28;92481;-62
2022/12/18 07:53:44;;;;;;;12.32;5.75;;;;;;;;;;4999089;28;94432;-62
2022/12/18 07:56:11;;;;;;;11.85;5.50;;;;;;;;;;5000797;28;91332;-62
2022/12/18 07:58:56;;;;;;;14.00;5.53;;;;;;;;;;4998256;28;91999;-62
2022/12/18 08:01:22;;;;;;;11.40;5.50;;;;;;;;;;5000635;28;92391;-63
2022/12/18 08:03:49;;;;;;;11.18;5.65;;;;;;;;;;5001714;28;94632;-62
2022/12/18 08:06:18;;;;;;;11.35;5.00;;;;;;;;;;5003218;28;93152;-62
2022/12/18 08:08:44;;;;;;;11.35;5.55;;;;;;;;;;5004057;28;92351;-62
2022/12/18 08:11:10;;;;;;;10.43;5.32;;;;;;;;;;4999748;28;92793;-62
2022/12/18 08:13:37;;;;;;;14.02;5.72;;;;;;;;;;4992062;28;93229;-64
2022/12/18 08:16:05;;;;;;;11.35;4.65;;;;;;;;;;5003078;28;92618;-65
2022/12/18 08:18:34;;;;;;;10.30;5.40;;;;;;;;;;5001315;28;93306;-63
2022/12/18 08:21:12;;;;;;;9.20;4.88;;;;;;;;;;5003498;28;91785;-63
2022/12/18 08:23:39;;;;;;;11.35;5.68;;;;;;;;;;5003376;28;93969;-63
2022/12/18 08:26:09;;;;;;;9.82;5.13;;;;;;;;;;4998737;28;94451;-62
2022/12/18 08:28:35;;;;;;;10.10;4.68;;;;;;;;;;5002027;28;94455;-62
2022/12/18 08:31:02;;;;;;;10.98;5.00;;;;;;;;;;5003916;28;95509;-63
2022/12/18 08:33:28;;;;;;;10.90;4.80;;;;;;;;;;5003407;28;92565;-62
2022/12/18 08:35:54;;;;;;;11.07;5.40;;;;;;;;;;5003481;28;92063;-63
2022/12/18 08:38:22;;;;;;;11.52;5.13;;;;;;;;;;5003650;28;93399;-63
2022/12/18 08:40:48;;;;;;;;;;;;;;;;;;4993896;28;94091;-62
2022/12/18 08:46:00;;;;;;;10.13;4.60;;;;;;;;;;5003696;28;92920;-62
2022/12/18 08:48:26;;;;;;;9.70;4.60;;;;;;;;;;5005692;28;93790;-63
2022/12/18 08:50:56;;;;;;;9.85;4.03;;;;;;;;;;5002804;28;92197;-63
2022/12/18 08:53:23;;;;;;;10.13;4.35;;;;;;;;;;5000994;28;94554;-63
2022/12/18 08:55:50;;;;;;;10.05;4.32;;;;;;;;;;5002837;28;92235;-62
2022/12/18 08:58:16;;;;;;;10.20;4.63;;;;;;;;;;5003151;28;92515;-63
2022/12/18 09:00:43;;;;;;;9.10;4.22;;;;;;;;;;5002504;28;93846;-65
2022/12/18 09:03:13;;;;;;;10.07;4.70;;;;;;;;;;5002679;28;92438;-67
2022/12/18 09:05:39;;;;;;;8.88;4.20;;;;;;;;;;5003027;28;92218;-62
2022/12/18 09:08:06;;;;;;;9.25;4.13;;;;;;;;;;5000634;28;92542;-63
2022/12/18 09:10:32;;;;;;;9.95;4.00;;;;;;;;;;5006414;28;91423;-61
2022/12/18 09:13:04;;;;;;;9.68;4.30;;;;;;;;;;5002990;28;93500;-61
2022/12/18 09:15:30;;;;;;;9.25;4.38;;;;;;;;;;5002482;28;92528;-65
2022/12/18 09:17:56;;;;;;;9.93;4.57;;;;;;;;;;5001355;28;94779;-63
2022/12/18 09:20:24;;;;;;;10.95;4.57;;;;;;;;;;5002951;28;93160;-62
2022/12/18 09:22:50;;;;;;;10.00;4.07;;;;;;;;;;5000656;28;92465;-62
2022/12/18 09:25:17;;;;;;;9.68;4.18;;;;;;;;;;4994359;28;92948;-62
2022/12/18 09:27:46;;;;;;;9.57;3.97;;;;;;;;;;5002950;28;92552;-63
2022/12/18 09:30:13;;;;;;;9.23;4.05;;;;;;;;;;5002523;28;92051;-63
2022/12/18 09:32:39;;;;;;;11.18;5.00;;;;;;;;;;5006211;28;92709;-65
2022/12/18 09:35:05;;;;;;;9.07;3.97;;;;;;;;;;5002097;28;91470;-64
2022/12/18 09:37:32;;;;;;;9.68;4.30;;;;;;;;;;4994609;28;93211;-62
2022/12/18 09:39:58;;;;;;;7.80;3.50;;;;;;;;;;5001868;28;92636;-61
2022/12/18 09:42:25;;;;;;;9.13;4.00;;;;;;;;;;4999103;28;95030;-63
2022/12/18 09:44:53;;;;;;;8.40;3.97;;;;;;;;;;5001635;28;95201;-62
2022/12/18 09:47:29;;;;;;;8.57;3.70;;;;;;;;;;5000607;28;93796;-62
2022/12/18 09:50:02;;;;;;;9.48;4.10;;;;;;;;;;5002321;28;93264;-62
2022/12/18 09:52:33;;;;;;;8.75;4.00;;;;;;;;;;5004012;28;93435;-61
2022/12/18 09:54:59;;;;;;;7.88;3.85;;;;;;;;;;5001733;28;91952;-62
2022/12/18 09:57:26;;;;;;;7.80;3.58;;;;;;;;;;5000567;28;92560;-63
2022/12/18 09:59:58;;;;;;;8.75;3.92;;;;;;;;;;5002099;28;91616;-63
2022/12/18 10:02:25;;;;;;;8.52;3.60;;;;;;;;;;5001685;28;92285;-64
2022/12/18 10:05:01;;;;;;;8.77;3.90;;;;;;;;;;4998288;28;92140;-62
2022/12/18 10:07:31;;;;;;;7.93;3.72;;;;;;;;;;4998490;28;95940;-62
2022/12/18 10:10:06;;;;;;;8.25;3.40;;;;;;;;;;5001741;28;92007;-62
2022/12/18 10:12:52;;;;;;;8.90;3.90;;;;;;;;;;5002287;28;92820;-62
2022/12/18 10:15:27;;;;;;;8.30;4.00;;;;;;;;;;4993006;28;92623;-62
2022/12/18 10:18:12;;;;;;;8.88;3.60;;;;;;;;;;4997012;28;92734;-62
2022/12/18 10:20:49;;;;;;;7.70;3.47;;;;;;;;;;4990216;28;92748;-62
2022/12/18 10:23:33;;;;;;;9.27;3.78;;;;;;;;;;5001634;28;92176;-62
2022/12/18 10:26:04;;;;;;;7.43;3.60;;;;;;;;;;5001287;28;93123;-62
2022/12/18 10:28:31;;;;;;;9.27;3.20;;;;;;;;;;5001045;28;91989;-61
2022/12/18 10:30:58;;;;;;;8.63;3.95;;;;;;;;;;5001701;28;92362;-61
2022/12/18 10:33:28;;;;;;;10.48;3.70;;;;;;;;;;5000316;28;94809;-61
2022/12/18 10:35:54;;;;;;;8.98;3.47;;;;;;;;;;5001288;28;92598;-62
2022/12/18 10:38:29;;;;;;;10.13;3.80;;;;;;;;;;5004825;28;93151;-62
2022/12/18 10:40:55;;;;;;;9.90;3.38;;;;;;;;;;5000230;28;92716;-62
2022/12/18 10:43:25;;;;;;;8.40;3.35;;;;;;;;;;5001677;28;92067;-63
2022/12/18 10:46:02;;;;;;;8.43;3.38;;;;;;;;;;4999556;28;92753;-63
2022/12/18 10:48:30;;;;;;;8.27;3.65;;;;;;;;;;5001097;28;92487;-62
2022/12/18 10:50:56;;;;;;;16.35;3.97;;;;;;;;;;5001454;28;91688;-62
2022/12/18 10:53:40;;;;;;;7.82;3.38;;;;;;;;;;5000416;28;92079;-64
2022/12/18 10:56:06;;;;;;;9.23;3.55;;;;;;;;;;4997033;28;93471;-63
2022/12/18 10:58:32;;;;;;;10.05;3.75;;;;;;;;;;4999384;28;94519;-62
2022/12/18 11:01:12;;;;;;;8.07;3.30;;;;;;;;;;5003918;28;94676;-62
2022/12/18 11:03:47;;;;;;;8.10;3.13;;;;;;;;;;5000835;28;92410;-62
2022/12/18 11:06:18;;;;;;;10.73;3.92;;;;;;;;;;5000143;28;92499;-64
2022/12/18 11:08:56;;;;;;;9.18;3.33;;;;;;;;;;5001348;28;93454;-62
2022/12/18 11:11:23;;;;;;;8.73;3.40;;;;;;;;;;5001836;28;93095;-62
2022/12/18 11:14:03;;;;;;;8.52;3.33;;;;;;;;;;4998520;28;92384;-62
2022/12/18 11:16:30;;;;;;;7.82;3.53;;;;;;;;;;4994246;28;92478;-63
2022/12/18 11:19:13;;;;;;;8.15;3.58;;;;;;;;;;5000727;28;92158;-63
2022/12/18 11:21:40;;;;;;;8.10;3.75;;;;;;;;;;5000996;28;92340;-63
2022/12/18 11:24:07;;;;;;;;;;;;;;;;;;5001957;28;94919;-63
2022/12/18 11:26:34;;;;;;;8.55;3.50;;;;;;;;;;5001634;28;123634;-63
2022/12/18 11:29:15;;;;;;;10.13;3.45;;;;;;;;;;4998857;28;93241;-63
2022/12/18 11:31:43;;;;;;;7.93;3.42;;;;;;;;;;4998831;28;92043;-63
2022/12/18 11:34:29;;;;;;;9.20;3.50;;;;;;;;;;5000913;28;92479;-63
2022/12/18 11:36:57;;;;;;;7.63;3.10;;;;;;;;;;4999802;28;92754;-63
2022/12/18 11:39:56;;;;;;;7.50;3.05;;;;;;;;;;5000702;28;92416;-63
2022/12/18 11:42:25;;;;;;;8.27;3.10;;;;;;;;;;4989897;28;92248;-62
2022/12/18 11:45:00;;;;;;;8.00;3.03;;;;;;;;;;5003828;28;92821;-63
2022/12/18 11:47:45;;;;;;;9.57;3.30;;;;;;;;;;5007020;28;92037;-63
2022/12/18 11:50:23;;;;;;;8.38;3.47;;;;;;;;;;5001886;28;95369;-62
2022/12/18 11:52:50;;;;;;;7.15;2.92;;;;;;;;;;5004028;28;92166;-63
2022/12/18 11:55:23;;;;;;;;;;;;;;;;;;5004624;28;92019;-62
2022/12/18 11:57:51;;;;;;;9.10;3.50;;;;;;;;;;5002189;28;119869;-63
2022/12/18 12:00:17;;;;;;;;;;;;;;;;;;5004414;28;92410;-64
2022/12/18 12:03:02;;;;;;;10.30;3.35;;;;;;;;;;5004913;28;113225;-64
2022/12/18 12:05:47;;;;;;;11.85;3.20;;;;;;;;;;5003706;28;92568;-64
2022/12/18 12:08:52;;;;;;;10.75;3.20;;;;;;;;;;5007198;28;91597;-65
2022/12/18 12:11:28;;;;;;;11.85;4.30;;;;;;;;;;5002592;28;92887;-64
2022/12/18 12:14:13;;;;;;;10.73;4.15;;;;;;;;;;5003838;28;92449;-64
2022/12/18 12:16:42;;;;;;;13.82;4.82;;;;;;;;;;4999450;28;94387;-65
2022/12/18 12:19:28;;;;;;;15.40;5.05;;;;;;;;;;5002952;28;92626;-64
2022/12/18 12:21:54;;;;;;;20.15;5.38;;;;;;;;;;5003361;28;92708;-67
2022/12/18 12:24:34;;;;;;;14.57;5.10;;;;;;;;;;5002832;28;92452;-67
2022/12/18 12:27:06;;;;;;;13.88;4.93;;;;;;;;;;5003419;28;92763;-67
2022/12/18 12:29:45;;;;;;;13.48;5.03;;;;;;;;;;5002252;28;92208;-70
2022/12/18 12:32:20;;;;;;;13.75;5.32;;;;;;;;;;5004794;28;92689;-68
2022/12/18 12:34:52;;;;;;;11.07;4.47;;;;;;;;;;5004014;28;91548;-68
2022/12/18 12:37:45;;;;;;;15.52;5.15;;;;;;;;;;5003275;28;92421;-68
2022/12/18 12:40:18;;;;;;;10.93;4.70;;;;;;;;;;5002735;28;92786;-68
2022/12/18 12:43:30;;;;;;;12.52;5.22;;;;;;;;;;4999802;28;94597;-68
2022/12/18 12:46:03;;;;;;;12.82;4.70;;;;;;;;;;4993643;28;95901;-68
2022/12/18 12:48:29;;;;;;;10.82;4.10;;;;;;;;;;5002447;28;93070;-67
2022/12/18 12:50:56;;;;;;;10.23;4.50;;;;;;;;;;5002165;28;92067;-67
2022/12/18 12:53:26;;;;;;;10.20;5.00;;;;;;;;;;5001642;28;92491;-65
2022/12/18 12:55:54;;;;;;;12.20;4.60;;;;;;;;;;5006160;28;92540;-67
2022/12/18 12:58:41;;;;;;;12.48;4.40;;;;;;;;;;4999422;28;92594;-67
2022/12/18 13:01:26;;;;;;;11.35;5.20;;;;;;;;;;5003232;28;91778;-67
2022/12/18 13:04:08;;;;;;;11.38;4.57;;;;;;;;;;5002305;28;92595;-67
2022/12/18 13:06:40;;;;;;;13.02;4.32;;;;;;;;;;5002062;28;92907;-61
2022/12/18 13:09:10;;;;;;;8.27;3.45;;;;;;;;;;5000107;28;94711;-67
2022/12/18 13:14:39;;;;;;;9.25;3.80;;;;;;;;;;5001169;28;93241;-67
2022/12/18 13:17:16;;;;;;;9.80;4.55;;;;;;;;;;5001167;28;93303;-68
2022/12/18 13:19:43;;;;;;;11.02;4.57;;;;;;;;;;5005215;28;92264;-68
2022/12/18 13:22:23;;;;;;;10.60;4.68;;;;;;;;;;5001429;28;92653;-70
2022/12/18 13:24:50;;;;;;;10.55;5.03;;;;;;;;;;5000951;28;92592;-69
2022/12/18 13:27:53;;;;;;;10.52;4.90;;;;;;;;;;5002155;28;91922;-69
2022/12/18 13:30:33;;;;;;;11.60;5.03;;;;;;;;;;4959860;28;92687;-69
2022/12/18 13:33:18;;;;;;;11.75;4.93;;;;;;;;;;4998524;28;92330;-69
2022/12/18 13:35:47;;;;;;;10.68;4.97;;;;;;;;;;4999417;28;94490;-69
2022/12/18 13:38:32;;;;;;;10.15;4.60;;;;;;;;;;5001991;28;92773;-70
2022/12/18 13:40:59;;;;;;;10.52;5.03;;;;;;;;;;5002243;28;92434;-72
2022/12/18 13:43:30;;;;;;;10.80;5.28;;;;;;;;;;5005258;28;92901;-71
2022/12/18 13:46:26;;;;;;;10.43;5.22;;;;;;;;;;5000011;28;92491;-70
2022/12/18 13:49:05;;;;;;;12.93;4.95;;;;;;;;;;4996399;28;92607;-70
2022/12/18 13:51:32;;;;;;;10.20;4.80;;;;;;;;;;5001930;28;93287;-70
2022/12/18 13:53:59;;;;;;;10.82;4.75;;;;;;;;;;5002499;28;91691;-70
2022/12/18 13:56:28;;;;;;;10.77;5.07;;;;;;;;;;5001969;28;92219;-72
2022/12/18 13:59:18;;;;;;;10.88;5.22;;;;;;;;;;5001711;28;93343;-68
2022/12/18 14:01:58;;;;;;;11.90;5.10;;;;;;;;;;4999198;28;94660;-72
2022/12/18 14:04:28;;;;;;;11.93;5.15;;;;;;;;;;5000282;28;95255;-70
2022/12/18 14:06:57;;;;;;;11.48;5.30;;;;;;;;;;5001561;28;92308;-71
2022/12/18 14:09:25;;;;;;;12.63;5.15;;;;;;;;;;5001730;28;92276;-71
2022/12/18 14:12:56;;;;;;;12.98;5.20;;;;;;;;;;5001364;28;92733;-63
2022/12/18 14:14:45;;;;;;;13.30;5.40;;;;;;;;;;5001767;28;92273;-64
2022/12/18 14:17:14;;;;;;;10.23;4.95;;;;;;;;;;5001007;28;93143;-64
2022/12/18 14:19:47;;;;;;;13.07;5.13;;;;;;;;;;5002272;28;91769;-64
2022/12/18 14:22:29;;;;;;;11.23;5.30;;;;;;;;;;4998818;28;92114;-63
2022/12/18 14:25:25;;;;;;;11.10;4.75;;;;;;;;;;4999800;28;93170;-65
2022/12/18 14:27:52;;;;;;;12.63;5.45;;;;;;;;;;4995046;28;95243;-64
2022/12/18 14:30:24;;;;;;;10.57;4.78;;;;;;;;;;5001763;28;94685;-65
2022/12/18 14:33:04;;;;;;;13.38;4.90;;;;;;;;;;5001371;28;92898;-65
2022/12/18 14:35:31;;;;;;;11.02;4.85;;;;;;;;;;5001586;28;93698;-65
2022/12/18 14:38:17;;;;;;;12.30;4.63;;;;;;;;;;5001535;28;92462;-65
2022/12/18 14:40:44;;;;;;;10.40;4.88;;;;;;;;;;5001487;28;92542;-63
2022/12/18 14:43:11;;;;;;;9.40;4.63;;;;;;;;;;5001329;28;92214;-65
2022/12/18 14:45:47;;;;;;;10.20;4.93;;;;;;;;;;5001167;28;92299;-65
2022/12/18 14:48:19;;;;;;;9.68;4.68;;;;;;;;;;5002228;28;92565;-65
2022/12/18 14:50:56;;;;;;;10.35;4.82;;;;;;;;;;5004884;28;92500;-64
2022/12/18 14:53:27;;;;;;;8.60;3.83;;;;;;;;;;4999877;28;95412;-64
2022/12/18 14:55:53;;;;;;;10.02;4.28;;;;;;;;;;5001182;28;92090;-63
2022/12/18 14:58:21;;;;;;;10.25;4.82;;;;;;;;;;5001207;28;92528;-67
2022/12/18 15:00:47;;;;;;;11.90;4.53;;;;;;;;;;4999380;28;92827;-67